sensor_id;sensor_type;location;lat;lon;timestamp;pressure;altitude;pressure_sealevel;temperature;humidity
30516;BME280;17297;54.022;10.760;2022-12-18T00:01:49;102877.56;;;-0.81;64.94
30516;BME280;17297;54.022;10.760;2022-12-18T00:04:24;102879.34;;;-0.82;64.96
30516;BME280;17297;54.022;10.760;2022-12-18T00:06:50;102879.44;;;-0.83;65.01
30516;BME280;17297;54.022;10.760;2022-12-18T00:09:16;102876.84;;;-0.85;64.90
30516;BME280;17297;54.022;10.760;2022-12-18T00:11:42;102883.88;;;-0.84;64.81
30516;BME280;17297;54.022;10.760;2022-12-18T00:14:09;102886.56;;;-0.85;64.81
30516;BME280;17297;54.022;10.760;2022-12-18T00:16:35;102887.50;;;-0.86;64.84
30516;BME280;17297;54.022;10.760;2022-12-18T00:19:02;102878.72;;;-0.87;64.79
30516;BME280;17297;54.022;10.760;2022-12-18T00:21:29;102884.84;;;-0.86;64.90
30516;BME280;17297;54.022;10.760;2022-12-18T00:23:55;102893.63;;;-0.86;64.90
30516;BME280;17297;54.022;10.760;2022-12-18T00:26:23;102894.63;;;-0.88;64.97
30516;BME280;17297;54.022;10.760;2022-12-18T00:28:53;102891.97;;;-0.88;64.83
30516;BME280;17297;54.022;10.760;2022-12-18T00:31:20;102902.69;;;-0.91;64.79
30516;BME280;17297;54.022;10.760;2022-12-18T00:33:46;102900.97;;;-0.93;64.89
30516;BME280;17297;54.022;10.760;2022-12-18T00:36:15;102900.16;;;-0.95;64.83
30516;BME280;17297;54.022;10.760;2022-12-18T00:38:41;102901.09;;;-0.96;64.87
30516;BME280;17297;54.022;10.760;2022-12-18T00:41:10;102900.28;;;-0.98;64.75
30516;BME280;17297;54.022;10.760;2022-12-18T00:43:37;102902.09;;;-0.98;64.84
30516;BME280;17297;54.022;10.760;2022-12-18T00:46:02;102903.91;;;-1.00;64.76
30516;BME280;17297;54.022;10.760;2022-12-18T00:48:28;102903.06;;;-1.01;64.86
30516;BME280;17297;54.022;10.760;2022-12-18T00:50:53;102910.22;;;-1.03;64.71
30516;BME280;17297;54.022;10.760;2022-12-18T00:53:19;102915.56;;;-1.04;64.80
30516;BME280;17297;54.022;10.760;2022-12-18T00:55:45;102923.47;;;-1.04;64.69
30516;BME280;17297;54.022;10.760;2022-12-18T00:58:13;102928.03;;;-1.08;64.70
30516;BME280;17297;54.022;10.760;2022-12-18T01:00:38;102926.34;;;-1.09;64.80
30516;BME280;17297;54.022;10.760;2022-12-18T01:03:05;102922.75;;;-1.08;64.77
30516;BME280;17297;54.022;10.760;2022-12-18T01:05:31;102927.19;;;-1.08;64.77
30516;BME280;17297;54.022;10.760;2022-12-18T01:07:56;102927.19;;;-1.08;64.77
30516;BME280;17297;54.022;10.760;2022-12-18T01:10:22;102920.16;;;-1.09;64.79
30516;BME280;17297;54.022;10.760;2022-12-18T01:12:48;102928.97;;;-1.09;64.80
30516;BME280;17297;54.022;10.760;2022-12-18T01:15:17;102927.22;;;-1.10;64.78
30516;BME280;17297;54.022;10.760;2022-12-18T01:17:43;102926.34;;;-1.09;64.54
30516;BME280;17297;54.022;10.760;2022-12-18T01:20:10;102934.25;;;-1.09;64.75
30516;BME280;17297;54.022;10.760;2022-12-18T01:22:35;102928.97;;;-1.09;64.56
30516;BME280;17297;54.022;10.760;2022-12-18T01:25:01;102923.69;;;-1.09;64.75
30516;BME280;17297;54.022;10.760;2022-12-18T01:27:26;102937.75;;;-1.08;64.72
30516;BME280;17297;54.022;10.760;2022-12-18T01:29:51;102922.88;;;-1.11;64.58
30516;BME280;17297;54.022;10.760;2022-12-18T01:32:18;102928.16;;;-1.11;64.55
30516;BME280;17297;54.022;10.760;2022-12-18T01:34:44;102930.84;;;-1.12;64.59
30516;BME280;17297;54.022;10.760;2022-12-18T01:37:09;102938.78;;;-1.12;64.61
30516;BME280;17297;54.022;10.760;2022-12-18T01:39:35;102949.44;;;-1.14;64.61
30516;BME280;17297;54.022;10.760;2022-12-18T01:42:15;102948.63;;;-1.16;64.63
30516;BME280;17297;54.022;10.760;2022-12-18T01:44:54;102954.88;;;-1.19;64.65
30516;BME280;17297;54.022;10.760;2022-12-18T01:49:55;102949.00;;;-1.25;64.69
30516;BME280;17297;54.022;10.760;2022-12-18T01:52:21;102940.28;;;-1.27;64.51
30516;BME280;17297;54.022;10.760;2022-12-18T01:54:48;102935.00;;;-1.27;64.70
30516;BME280;17297;54.022;10.760;2022-12-18T01:57:15;102936.84;;;-1.29;64.62
30516;BME280;17297;54.022;10.760;2022-12-18T01:59:42;102937.78;;;-1.30;64.69
30516;BME280;17297;54.022;10.760;2022-12-18T02:02:10;102933.47;;;-1.33;64.64
30516;BME280;17297;54.022;10.760;2022-12-18T02:04:36;102959.03;;;-1.33;64.63
30516;BME280;17297;54.022;10.760;2022-12-18T02:07:42;102964.34;;;-1.35;64.59
30516;BME280;17297;54.022;10.760;2022-12-18T02:10:20;102956.50;;;-1.36;64.48
30516;BME280;17297;54.022;10.760;2022-12-18T02:15:37;102968.97;;;-1.40;64.44
30516;BME280;17297;54.022;10.760;2022-12-18T02:18:11;102964.69;;;-1.43;64.58
30516;BME280;17297;54.022;10.760;2022-12-18T02:20:45;102969.03;;;-1.42;64.63
30516;BME280;17297;54.022;10.760;2022-12-18T02:23:54;102970.09;;;-1.46;64.60
30516;BME280;17297;54.022;10.760;2022-12-18T02:26:30;102970.97;;;-1.47;64.49
30516;BME280;17297;54.022;10.760;2022-12-18T02:29:03;102962.19;;;-1.47;64.60
30516;BME280;17297;54.022;10.760;2022-12-18T02:31:36;102957.00;;;-1.49;64.47
30516;BME280;17297;54.022;10.760;2022-12-18T02:34:07;102963.25;;;-1.51;64.39
30516;BME280;17297;54.022;10.760;2022-12-18T02:36:38;102962.41;;;-1.52;64.57
30516;BME280;17297;54.022;10.760;2022-12-18T02:39:09;102964.19;;;-1.52;64.50
30516;BME280;17297;54.022;10.760;2022-12-18T02:41:39;102978.28;;;-1.53;64.30
30516;BME280;17297;54.022;10.760;2022-12-18T02:44:10;102979.22;;;-1.54;64.48
30516;BME280;17297;54.022;10.760;2022-12-18T02:46:52;102984.63;;;-1.57;64.59
30516;BME280;17297;54.022;10.760;2022-12-18T02:52:17;102978.53;;;-1.59;64.35
30516;BME280;17297;54.022;10.760;2022-12-18T02:57:33;102980.38;;;-1.61;64.47
30516;BME280;17297;54.022;10.760;2022-12-18T03:00:11;102974.28;;;-1.64;64.42
30516;BME280;17297;54.022;10.760;2022-12-18T03:02:46;102971.72;;;-1.65;64.40
30516;BME280;17297;54.022;10.760;2022-12-18T03:05:20;102969.09;;;-1.65;64.31
30516;BME280;17297;54.022;10.760;2022-12-18T03:07:56;102970.00;;;-1.66;64.51
30516;BME280;17297;54.022;10.760;2022-12-18T03:10:31;102975.22;;;-1.65;64.39
30516;BME280;17297;54.022;10.760;2022-12-18T03:13:03;102983.16;;;-1.65;64.36
30516;BME280;17297;54.022;10.760;2022-12-18T03:15:45;102984.00;;;-1.64;64.53
30516;BME280;17297;54.022;10.760;2022-12-18T03:18:17;102995.41;;;-1.64;64.31
30516;BME280;17297;54.022;10.760;2022-12-18T03:20:45;102986.63;;;-1.64;64.38
30516;BME280;17297;54.022;10.760;2022-12-18T03:23:21;102987.50;;;-1.64;64.25
30516;BME280;17297;54.022;10.760;2022-12-18T03:25:51;102974.38;;;-1.65;64.29
30516;BME280;17297;54.022;10.760;2022-12-18T03:28:21;102983.16;;;-1.65;64.43
30516;BME280;17297;54.022;10.760;2022-12-18T03:30:57;102977.88;;;-1.65;64.26
30516;BME280;17297;54.022;10.760;2022-12-18T03:33:31;102982.28;;;-1.65;64.28
30516;BME280;17297;54.022;10.760;2022-12-18T03:36:00;102984.03;;;-1.66;64.42
30516;BME280;17297;54.022;10.760;2022-12-18T03:38:26;102992.88;;;-1.67;64.36
30516;BME280;17297;54.022;10.760;2022-12-18T03:40:59;102990.25;;;-1.67;64.30
30516;BME280;17297;54.022;10.760;2022-12-18T03:43:52;102986.75;;;-1.67;64.23
30516;BME280;17297;54.022;10.760;2022-12-18T03:46:25;102984.13;;;-1.67;64.23
30516;BME280;17297;54.022;10.760;2022-12-18T03:48:59;102985.03;;;-1.68;64.30
30516;BME280;17297;54.022;10.760;2022-12-18T03:51:37;102994.72;;;-1.69;64.29
30516;BME280;17297;54.022;10.760;2022-12-18T03:54:06;103003.53;;;-1.68;64.21
30516;BME280;17297;54.022;10.760;2022-12-18T03:56:44;103000.00;;;-1.69;64.29
30516;BME280;17297;54.022;10.760;2022-12-18T03:59:13;103004.38;;;-1.68;64.24
30516;BME280;17297;54.022;10.760;2022-12-18T04:01:43;103002.59;;;-1.67;64.33
30516;BME280;17297;54.022;10.760;2022-12-18T04:04:14;102989.44;;;-1.69;64.21
30516;BME280;17297;54.022;10.760;2022-12-18T04:06:43;102998.28;;;-1.70;64.19
30516;BME280;17297;54.022;10.760;2022-12-18T04:09:11;102987.72;;;-1.70;64.27
30516;BME280;17297;54.022;10.760;2022-12-18T04:11:42;102978.09;;;-1.71;64.29
30516;BME280;17297;54.022;10.760;2022-12-18T04:14:10;102969.38;;;-1.73;64.29
30516;BME280;17297;54.022;10.760;2022-12-18T04:16:35;102970.31;;;-1.74;64.13
30516;BME280;17297;54.022;10.760;2022-12-18T04:19:03;102969.44;;;-1.74;64.06
30516;BME280;17297;54.022;10.760;2022-12-18T04:21:34;102973.91;;;-1.76;64.22
30516;BME280;17297;54.022;10.760;2022-12-18T04:24:00;102974.84;;;-1.77;64.20
30516;BME280;17297;54.022;10.760;2022-12-18T04:26:26;102969.59;;;-1.79;64.11
30516;BME280;17297;54.022;10.760;2022-12-18T04:29:02;102974.97;;;-1.80;64.16
30516;BME280;17297;54.022;10.760;2022-12-18T04:31:28;102972.31;;;-1.80;64.25
30516;BME280;17297;54.022;10.760;2022-12-18T04:33:54;102964.44;;;-1.82;64.21
30516;BME280;17297;54.022;10.760;2022-12-18T04:36:19;102979.41;;;-1.82;64.06
30516;BME280;17297;54.022;10.760;2022-12-18T04:38:46;102982.09;;;-1.84;64.14
30516;BME280;17297;54.022;10.760;2022-12-18T04:41:14;102985.75;;;-1.87;64.21
30516;BME280;17297;54.022;10.760;2022-12-18T04:43:41;102994.50;;;-1.86;63.97
30516;BME280;17297;54.022;10.760;2022-12-18T04:46:07;102993.78;;;-1.90;64.12
30516;BME280;17297;54.022;10.760;2022-12-18T04:48:33;102992.09;;;-1.92;64.20
30516;BME280;17297;54.022;10.760;2022-12-18T04:51:01;102997.38;;;-1.92;64.02
30516;BME280;17297;54.022;10.760;2022-12-18T04:53:29;102993.00;;;-1.93;63.97
30516;BME280;17297;54.022;10.760;2022-12-18T04:56:10;102992.25;;;-1.97;64.20
30516;BME280;17297;54.022;10.760;2022-12-18T04:58:36;102997.53;;;-1.97;64.02
30516;BME280;17297;54.022;10.760;2022-12-18T05:01:03;103003.75;;;-1.98;64.08
30516;BME280;17297;54.022;10.760;2022-12-18T05:03:28;103000.25;;;-1.98;64.00
30516;BME280;17297;54.022;10.760;2022-12-18T05:05:54;103005.53;;;-1.98;64.10
30516;BME280;17297;54.022;10.760;2022-12-18T05:08:19;103019.63;;;-1.99;63.96
30516;BME280;17297;54.022;10.760;2022-12-18T05:10:44;103012.63;;;-2.00;64.06
30516;BME280;17297;54.022;10.760;2022-12-18T05:13:10;103005.56;;;-2.00;64.05
30516;BME280;17297;54.022;10.760;2022-12-18T05:15:35;103007.41;;;-2.02;64.11
30516;BME280;17297;54.022;10.760;2022-12-18T05:18:01;103013.53;;;-2.01;63.97
30516;BME280;17297;54.022;10.760;2022-12-18T05:20:27;103013.59;;;-2.03;63.92
30516;BME280;17297;54.022;10.760;2022-12-18T05:22:53;103006.59;;;-2.04;63.97
30516;BME280;17297;54.022;10.760;2022-12-18T05:25:19;102994.34;;;-2.05;63.97
30516;BME280;17297;54.022;10.760;2022-12-18T05:27:45;102995.19;;;-2.04;63.86
30516;BME280;17297;54.022;10.760;2022-12-18T05:30:11;103000.50;;;-2.06;64.11
30516;BME280;17297;54.022;10.760;2022-12-18T05:32:37;103011.97;;;-2.07;63.87
30516;BME280;17297;54.022;10.760;2022-12-18T05:35:03;103020.81;;;-2.08;63.81
30516;BME280;17297;54.022;10.760;2022-12-18T05:37:28;103021.72;;;-2.09;63.78
30516;BME280;17297;54.022;10.760;2022-12-18T05:39:54;103017.38;;;-2.10;63.96
30516;BME280;17297;54.022;10.760;2022-12-18T05:42:19;103011.28;;;-2.12;63.92
30516;BME280;17297;54.022;10.760;2022-12-18T05:44:45;103016.56;;;-2.12;63.97
30516;BME280;17297;54.022;10.760;2022-12-18T05:47:10;103027.09;;;-2.12;63.99
30516;BME280;17297;54.022;10.760;2022-12-18T05:49:35;103035.00;;;-2.12;63.98
30516;BME280;17297;54.022;10.760;2022-12-18T05:52:01;103039.50;;;-2.14;63.94
30516;BME280;17297;54.022;10.760;2022-12-18T05:54:29;103045.69;;;-2.15;63.83
30516;BME280;17297;54.022;10.760;2022-12-18T05:56:54;103042.25;;;-2.17;63.72
30516;BME280;17297;54.022;10.760;2022-12-18T05:59:20;103049.31;;;-2.18;63.90
30516;BME280;17297;54.022;10.760;2022-12-18T06:01:45;103044.88;;;-2.17;63.99
30516;BME280;17297;54.022;10.760;2022-12-18T06:04:11;103034.38;;;-2.19;63.98
30516;BME280;17297;54.022;10.760;2022-12-18T06:06:36;103029.97;;;-2.18;63.94
30516;BME280;17297;54.022;10.760;2022-12-18T06:09:03;103029.09;;;-2.19;63.96
30516;BME280;17297;54.022;10.760;2022-12-18T06:11:34;103035.31;;;-2.20;63.91
30516;BME280;17297;54.022;10.760;2022-12-18T06:14:00;103029.09;;;-2.19;63.89
30516;BME280;17297;54.022;10.760;2022-12-18T06:16:27;103034.38;;;-2.19;63.68
30516;BME280;17297;54.022;10.760;2022-12-18T06:18:55;103022.97;;;-2.19;63.95
30516;BME280;17297;54.022;10.760;2022-12-18T06:21:20;103025.63;;;-2.19;63.71
30516;BME280;17297;54.022;10.760;2022-12-18T06:23:46;103024.75;;;-2.20;63.86
30516;BME280;17297;54.022;10.760;2022-12-18T06:26:12;103027.41;;;-2.20;63.75
30516;BME280;17297;54.022;10.760;2022-12-18T06:28:38;103027.44;;;-2.21;63.92
30516;BME280;17297;54.022;10.760;2022-12-18T06:31:04;103030.97;;;-2.21;63.77
30516;BME280;17297;54.022;10.760;2022-12-18T06:33:30;103030.06;;;-2.21;63.75
30516;BME280;17297;54.022;10.760;2022-12-18T06:36:10;103031.91;;;-2.23;63.74
30516;BME280;17297;54.022;10.760;2022-12-18T06:38:38;103019.63;;;-2.24;63.74
30516;BME280;17297;54.022;10.760;2022-12-18T06:41:08;103020.56;;;-2.25;63.72
30516;BME280;17297;54.022;10.760;2022-12-18T06:43:34;103025.81;;;-2.25;63.72
30516;BME280;17297;54.022;10.760;2022-12-18T06:46:00;103032.91;;;-2.27;63.70
30516;BME280;17297;54.022;10.760;2022-12-18T06:48:25;103038.19;;;-2.27;63.76
30516;BME280;17297;54.022;10.760;2022-12-18T06:50:51;103046.09;;;-2.27;63.70
30516;BME280;17297;54.022;10.760;2022-12-18T06:53:16;103043.53;;;-2.29;63.70
30516;BME280;17297;54.022;10.760;2022-12-18T06:55:41;103057.56;;;-2.28;63.78
30516;BME280;17297;54.022;10.760;2022-12-18T06:58:07;103062.00;;;-2.29;63.87
30516;BME280;17297;54.022;10.760;2022-12-18T07:00:32;103062.00;;;-2.29;63.67
30516;BME280;17297;54.022;10.760;2022-12-18T07:02:58;103063.78;;;-2.29;63.71
30516;BME280;17297;54.022;10.760;2022-12-18T07:05:23;103066.41;;;-2.29;63.62
30516;BME280;17297;54.022;10.760;2022-12-18T07:07:48;103064.63;;;-2.29;63.78
30516;BME280;17297;54.022;10.760;2022-12-18T07:10:14;103078.66;;;-2.28;63.76
30516;BME280;17297;54.022;10.760;2022-12-18T07:12:39;103074.31;;;-2.29;63.59
30516;BME280;17297;54.022;10.760;2022-12-18T07:15:05;103072.53;;;-2.29;63.70
30516;BME280;17297;54.022;10.760;2022-12-18T07:17:30;103069.06;;;-2.29;63.73
30516;BME280;17297;54.022;10.760;2022-12-18T07:19:56;103076.88;;;-2.28;63.78
30516;BME280;17297;54.022;10.760;2022-12-18T07:22:21;103087.41;;;-2.26;63.75
30516;BME280;17297;54.022;10.760;2022-12-18T07:24:47;103081.22;;;-2.25;63.67
30516;BME280;17297;54.022;10.760;2022-12-18T07:27:15;103083.03;;;-2.27;63.70
30516;BME280;17297;54.022;10.760;2022-12-18T07:29:40;103074.25;;;-2.28;63.71
30516;BME280;17297;54.022;10.760;2022-12-18T07:32:05;103074.25;;;-2.28;63.67
30516;BME280;17297;54.022;10.760;2022-12-18T07:34:32;103072.47;;;-2.27;63.89
30516;BME280;17297;54.022;10.760;2022-12-18T07:36:57;103085.66;;;-2.27;63.67
30516;BME280;17297;54.022;10.760;2022-12-18T07:39:23;103086.47;;;-2.25;63.91
30516;BME280;17297;54.022;10.760;2022-12-18T07:41:48;103094.19;;;-2.19;63.73
30516;BME280;17297;54.022;10.760;2022-12-18T07:44:33;103098.41;;;-2.15;63.48
30516;BME280;17297;54.022;10.760;2022-12-18T07:46:59;103107.22;;;-2.15;63.76
30516;BME280;17297;54.022;10.760;2022-12-18T07:49:24;103110.72;;;-2.14;63.67
30516;BME280;17297;54.022;10.760;2022-12-18T07:51:49;103115.69;;;-2.05;63.87
30516;BME280;17297;54.022;10.760;2022-12-18T07:54:14;103113.25;;;-1.86;64.25
30516;BME280;17297;54.022;10.760;2022-12-18T07:56:40;103117.63;;;-1.61;64.05
30516;BME280;17297;54.022;10.760;2022-12-18T07:59:05;103114.88;;;-1.35;64.07
30516;BME280;17297;54.022;10.760;2022-12-18T08:01:31;103112.97;;;-1.08;63.79
30516;BME280;17297;54.022;10.760;2022-12-18T08:03:57;103117.06;;;-0.77;63.67
30516;BME280;17297;54.022;10.760;2022-12-18T08:06:22;103123.75;;;-0.47;63.47
30516;BME280;17297;54.022;10.760;2022-12-18T08:08:48;103121.97;;;-0.26;63.21
30516;BME280;17297;54.022;10.760;2022-12-18T08:11:13;103125.06;;;-0.16;62.86
30516;BME280;17297;54.022;10.760;2022-12-18T08:13:38;103124.22;;;-0.16;62.53
30516;BME280;17297;54.022;10.760;2022-12-18T08:16:06;103122.50;;;-0.17;62.52
30516;BME280;17297;54.022;10.760;2022-12-18T08:18:35;103116.66;;;-0.26;62.42
30516;BME280;17297;54.022;10.760;2022-12-18T08:21:11;103120.72;;;-0.37;62.23
30516;BME280;17297;54.022;10.760;2022-12-18T08:23:37;103123.91;;;-0.51;62.39
30516;BME280;17297;54.022;10.760;2022-12-18T08:26:03;103134.97;;;-0.63;62.30
30516;BME280;17297;54.022;10.760;2022-12-18T08:28:29;103124.03;;;-0.76;62.42
30516;BME280;17297;54.022;10.760;2022-12-18T08:30:55;103127.91;;;-0.85;62.70
30516;BME280;17297;54.022;10.760;2022-12-18T08:33:20;103127.41;;;-0.95;62.65
30516;BME280;17297;54.022;10.760;2022-12-18T08:35:45;103131.22;;;-1.02;62.63
30516;BME280;17297;54.022;10.760;2022-12-18T08:38:11;103135.94;;;-1.10;62.63
30516;BME280;17297;54.022;10.760;2022-12-18T08:40:36;103135.19;;;-1.13;62.79
30516;BME280;17297;54.022;10.760;2022-12-18T08:43:02;103136.25;;;-1.18;62.73
30516;BME280;17297;54.022;10.760;2022-12-18T08:45:46;103134.63;;;-1.22;62.71
30516;BME280;17297;54.022;10.760;2022-12-18T08:48:11;103131.22;;;-1.25;62.77
30516;BME280;17297;54.022;10.760;2022-12-18T08:50:36;103130.44;;;-1.27;62.82
30516;BME280;17297;54.022;10.760;2022-12-18T08:53:02;103120.78;;;-1.28;62.98
30516;BME280;17297;54.022;10.760;2022-12-18T08:55:27;103105.88;;;-1.29;62.90
30516;BME280;17297;54.022;10.760;2022-12-18T08:57:53;103106.78;;;-1.30;62.94
30516;BME280;17297;54.022;10.760;2022-12-18T09:00:18;103120.00;;;-1.30;62.99
30516;BME280;17297;54.022;10.760;2022-12-18T09:02:44;103113.78;;;-1.29;62.86
30516;BME280;17297;54.022;10.760;2022-12-18T09:05:09;103119.16;;;-1.31;62.80
30516;BME280;17297;54.022;10.760;2022-12-18T09:07:35;103115.56;;;-1.30;62.93
30516;BME280;17297;54.022;10.760;2022-12-18T09:10:00;103121.72;;;-1.29;62.89
30516;BME280;17297;54.022;10.760;2022-12-18T09:12:26;103120.78;;;-1.28;62.89
30516;BME280;17297;54.022;10.760;2022-12-18T09:14:51;103123.31;;;-1.25;62.81
30516;BME280;17297;54.022;10.760;2022-12-18T09:17:17;103133.03;;;-1.26;62.80
30516;BME280;17297;54.022;10.760;2022-12-18T09:19:42;103131.22;;;-1.25;62.79
30516;BME280;17297;54.022;10.760;2022-12-18T09:22:08;103132.09;;;-1.25;62.72
30516;BME280;17297;54.022;10.760;2022-12-18T09:24:34;103124.97;;;-1.23;62.75
30516;BME280;17297;54.022;10.760;2022-12-18T09:27:00;103121.41;;;-1.22;62.75
30516;BME280;17297;54.022;10.760;2022-12-18T09:29:25;103122.28;;;-1.21;62.77
30516;BME280;17297;54.022;10.760;2022-12-18T09:31:50;103135.38;;;-1.18;62.86
30516;BME280;17297;54.022;10.760;2022-12-18T09:34:16;103126.53;;;-1.17;62.92
30516;BME280;17297;54.022;10.760;2022-12-18T09:36:42;103130.84;;;-1.14;62.81
30516;BME280;17297;54.022;10.760;2022-12-18T09:39:07;103129.88;;;-1.12;62.71
30516;BME280;17297;54.022;10.760;2022-12-18T09:41:40;103128.00;;;-1.10;62.72
30516;BME280;17297;54.022;10.760;2022-12-18T09:46:44;103131.22;;;-1.02;62.79
30516;BME280;17297;54.022;10.760;2022-12-18T09:49:17;103132.91;;;-0.99;62.77
30516;BME280;17297;54.022;10.760;2022-12-18T09:51:50;103123.97;;;-0.97;62.69
30516;BME280;17297;54.022;10.760;2022-12-18T09:54:45;103131.78;;;-0.94;62.86
30516;BME280;17297;54.022;10.760;2022-12-18T09:57:18;103136.94;;;-0.90;62.70
30516;BME280;17297;54.022;10.760;2022-12-18T09:59:51;103132.41;;;-0.87;62.81
30516;BME280;17297;54.022;10.760;2022-12-18T10:02:20;103128.72;;;-0.83;62.69
30516;BME280;17297;54.022;10.760;2022-12-18T10:04:55;103120.78;;;-0.83;62.71
30516;BME280;17297;54.022;10.760;2022-12-18T10:07:33;103124.16;;;-0.79;62.67
30516;BME280;17297;54.022;10.760;2022-12-18T10:10:20;103121.47;;;-0.78;62.83
30516;BME280;17297;54.022;10.760;2022-12-18T10:16:03;103117.78;;;-0.74;62.57
30516;BME280;17297;54.022;10.760;2022-12-18T10:21:12;103122.00;;;-0.70;62.63
30516;BME280;17297;54.022;10.760;2022-12-18T10:23:47;103108.75;;;-0.68;62.72
30516;BME280;17297;54.022;10.760;2022-12-18T10:26:15;103116.72;;;-0.70;62.64
30516;BME280;17297;54.022;10.760;2022-12-18T10:28:41;103123.69;;;-0.67;62.69
30516;BME280;17297;54.022;10.760;2022-12-18T10:31:14;103122.63;;;-0.63;62.77
30516;BME280;17297;54.022;10.760;2022-12-18T10:33:41;103126.06;;;-0.61;62.74
30516;BME280;17297;54.022;10.760;2022-12-18T10:36:07;103133.88;;;-0.58;62.86
30516;BME280;17297;54.022;10.760;2022-12-18T10:38:33;103133.69;;;-0.53;62.81
30516;BME280;17297;54.022;10.760;2022-12-18T10:41:06;103132.66;;;-0.49;62.73
30516;BME280;17297;54.022;10.760;2022-12-18T10:43:38;103133.31;;;-0.44;62.85
30516;BME280;17297;54.022;10.760;2022-12-18T10:48:34;103123.22;;;-0.34;62.92
30516;BME280;17297;54.022;10.760;2022-12-18T10:51:02;103120.38;;;-0.30;62.73
30516;BME280;17297;54.022;10.760;2022-12-18T10:53:31;103133.34;;;-0.24;62.75
30516;BME280;17297;54.022;10.760;2022-12-18T10:55:58;103125.19;;;-0.19;62.70
30516;BME280;17297;54.022;10.760;2022-12-18T10:58:37;103126.81;;;-0.15;62.61
30516;BME280;17297;54.022;10.760;2022-12-18T11:01:15;103125.75;;;-0.11;62.68
30516;BME280;17297;54.022;10.760;2022-12-18T11:06:17;103121.00;;;-0.03;62.74
30516;BME280;17297;54.022;10.760;2022-12-18T11:08:56;103125.22;;;0.02;62.63
30516;BME280;17297;54.022;10.760;2022-12-18T11:11:23;103125.09;;;0.05;62.71
30516;BME280;17297;54.022;10.760;2022-12-18T11:14:02;103117.00;;;0.08;62.62
30516;BME280;17297;54.022;10.760;2022-12-18T11:16:30;103118.66;;;0.10;62.70
30516;BME280;17297;54.022;10.760;2022-12-18T11:21:46;103119.44;;;0.12;62.66
30516;BME280;17297;54.022;10.760;2022-12-18T11:24:38;103115.03;;;0.13;62.70
30516;BME280;17297;54.022;10.760;2022-12-18T11:27:05;103120.25;;;0.14;62.48
30516;BME280;17297;54.022;10.760;2022-12-18T11:29:35;103130.69;;;0.17;62.56
30516;BME280;17297;54.022;10.760;2022-12-18T11:32:22;103122.75;;;0.17;62.73
30516;BME280;17297;54.022;10.760;2022-12-18T11:34:54;103121.78;;;0.20;62.52
30516;BME280;17297;54.022;10.760;2022-12-18T11:37:22;103120.78;;;0.22;62.64
30516;BME280;17297;54.022;10.760;2022-12-18T11:39:58;103119.78;;;0.25;62.63
30516;BME280;17297;54.022;10.760;2022-12-18T11:45:25;103104.91;;;0.22;62.32
30516;BME280;17297;54.022;10.760;2022-12-18T11:48:04;103104.09;;;0.20;62.42
30516;BME280;17297;54.022;10.760;2022-12-18T11:53:02;103108.59;;;0.18;62.43
30516;BME280;17297;54.022;10.760;2022-12-18T11:55:35;103110.47;;;0.16;62.28
30516;BME280;17297;54.022;10.760;2022-12-18T11:58:17;103117.56;;;0.16;62.40
30516;BME280;17297;54.022;10.760;2022-12-18T12:04:04;103120.34;;;0.13;62.50
30516;BME280;17297;54.022;10.760;2022-12-18T12:06:43;103116.78;;;0.12;62.44
30516;BME280;17297;54.022;10.760;2022-12-18T12:12:16;103097.28;;;0.15;62.52
30516;BME280;17297;54.022;10.760;2022-12-18T12:15:17;103112.31;;;0.14;62.56
30516;BME280;17297;54.022;10.760;2022-12-18T12:21:06;103106.03;;;0.17;62.45
30516;BME280;17297;54.022;10.760;2022-12-18T12:23:42;103106.06;;;0.15;62.36
30516;BME280;17297;54.022;10.760;2022-12-18T12:26:11;103098.13;;;0.15;62.42
30516;BME280;17297;54.022;10.760;2022-12-18T12:28:56;103084.97;;;0.14;62.56
30516;BME280;17297;54.022;10.760;2022-12-18T12:31:47;103077.03;;;0.14;62.27
30516;BME280;17297;54.022;10.760;2022-12-18T12:34:22;103075.47;;;0.10;62.25
30516;BME280;17297;54.022;10.760;2022-12-18T12:39:34;103069.56;;;0.03;62.26
30516;BME280;17297;54.022;10.760;2022-12-18T12:42:03;103080.38;;;-0.02;62.05
30516;BME280;17297;54.022;10.760;2022-12-18T12:44:51;103074.47;;;-0.08;61.96
30516;BME280;17297;54.022;10.760;2022-12-18T12:47:33;103081.03;;;-0.17;62.10
30516;BME280;17297;54.022;10.760;2022-12-18T12:50:04;103077.72;;;-0.22;61.97
30516;BME280;17297;54.022;10.760;2022-12-18T12:52:52;103063.03;;;-0.29;62.11
30516;BME280;17297;54.022;10.760;2022-12-18T12:55:27;103061.31;;;-0.30;62.11
30516;BME280;17297;54.022;10.760;2022-12-18T13:00:55;103061.59;;;-0.36;62.26
30516;BME280;17297;54.022;10.760;2022-12-18T13:03:37;103067.00;;;-0.39;62.01
30516;BME280;17297;54.022;10.760;2022-12-18T13:06:29;103061.00;;;-0.43;62.13
30516;BME280;17297;54.022;10.760;2022-12-18T13:08:58;103052.19;;;-0.43;62.13
30516;BME280;17297;54.022;10.760;2022-12-18T13:11:50;103047.03;;;-0.47;62.12
30516;BME280;17297;54.022;10.760;2022-12-18T13:14:37;103047.03;;;-0.47;62.15
30516;BME280;17297;54.022;10.760;2022-12-18T13:17:28;103027.72;;;-0.49;62.13
30516;BME280;17297;54.022;10.760;2022-12-18T13:22:40;103005.84;;;-0.52;62.16
30516;BME280;17297;54.022;10.760;2022-12-18T13:25:26;102993.53;;;-0.53;62.19
30516;BME280;17297;54.022;10.760;2022-12-18T13:28:03;102985.59;;;-0.53;62.30
30516;BME280;17297;54.022;10.760;2022-12-18T13:38:39;102981.78;;;-0.46;62.38
30516;BME280;17297;54.022;10.760;2022-12-18T13:43:45;102983.44;;;-0.43;62.42
30516;BME280;17297;54.022;10.760;2022-12-18T13:49:04;102996.81;;;-0.47;62.09
30516;BME280;17297;54.022;10.760;2022-12-18T13:51:33;103005.63;;;-0.48;62.20
30516;BME280;17297;54.022;10.760;2022-12-18T13:54:01;103010.03;;;-0.47;62.34
30516;BME280;17297;54.022;10.760;2022-12-18T13:56:30;103026.66;;;-0.44;62.36
30516;BME280;17297;54.022;10.760;2022-12-18T13:59:20;103012.53;;;-0.43;62.49